Time;durP1;ratioP1;P1;durP2;ratioP2;P2;SDS_P1;SDS_P2;PMS_P1;PMS_P2;Temp;Humidity;BMP_temperature;BMP_pressure;BME280_temperature;BME280_humidity;BME280_pressure;Samples;Min_cycle;Max_cycle;Signal;HPM_P1;HPM_P2
2024/02/17 00:00:04;;;;;;;4.10;1.15;;;;;;;10.13;71.85;101038.09;5041238;28;20045;-45
2024/02/17 00:02:31;;;;;;;3.38;1.33;;;;;;;10.12;71.35;101039.84;5044728;28;20088;-45
2024/02/17 00:04:58;;;;;;;9.07;1.40;;;;;;;10.11;72.08;101047.56;5028228;28;20140;-47
2024/02/17 00:07:25;;;;;;;6.38;1.85;;;;;;;10.11;71.84;101050.16;5035102;28;20056;-45
2024/02/17 00:09:52;;;;;;;6.93;1.80;;;;;;;10.11;71.92;101050.16;5043778;28;20063;-45
2024/02/17 00:12:21;;;;;;;7.60;2.47;;;;;;;10.10;71.61;101053.63;5043611;28;20410;-46
2024/02/17 00:14:48;;;;;;;3.15;1.05;;;;;;;10.08;71.84;101051.00;5047452;28;20110;-47
2024/02/17 00:17:14;;;;;;;4.95;0.90;;;;;;;10.09;72.17;101057.03;5047543;28;20080;-48
2024/02/17 00:19:41;;;;;;;4.68;1.17;;;;;;;10.09;71.80;101062.19;5046273;28;20053;-46
2024/02/17 00:22:08;;;;;;;2.17;0.70;;;;;;;10.09;72.16;101067.38;5047580;28;20052;-45
2024/02/17 00:24:35;;;;;;;2.33;1.25;;;;;;;10.08;71.28;101065.66;5044574;28;20080;-46
2024/02/17 00:27:02;;;;;;;2.85;0.40;;;;;;;10.08;71.62;101081.19;5046518;28;20045;-47
2024/02/17 00:29:29;;;;;;;0.90;0.70;;;;;;;10.07;71.91;101079.44;5042750;28;20049;-46
2024/02/17 00:31:56;;;;;;;3.65;0.95;;;;;;;10.07;71.41;101084.63;5023061;28;20057;-44
2024/02/17 00:34:25;;;;;;;1.48;1.25;;;;;;;10.05;72.23;101082.00;5024269;28;20049;-46
2024/02/17 00:36:51;;;;;;;2.50;1.33;;;;;;;10.05;71.31;101089.78;5030446;28;20106;-46
2024/02/17 00:39:18;;;;;;;4.60;0.85;;;;;;;10.03;72.24;101088.84;5041428;28;20145;-48
2024/02/17 00:41:45;;;;;;;4.63;1.13;;;;;;;10.03;71.35;101088.84;5015715;28;20060;-48
2024/02/17 00:44:12;;;;;;;1.08;0.60;;;;;;;9.99;72.19;101080.19;5045090;28;20053;-50
2024/02/17 00:46:40;;;;;;;4.30;0.90;;;;;;;10.00;71.80;101087.09;5045069;28;20114;-49
2024/02/17 00:49:09;;;;;;;2.10;0.80;;;;;;;9.98;72.05;101086.22;5044281;28;20639;-46
2024/02/17 00:51:36;;;;;;;4.55;0.70;;;;;;;9.96;72.10;101093.06;5038117;28;20041;-49
2024/02/17 00:54:03;;;;;;;1.80;0.93;;;;;;;9.95;72.63;101091.34;5035896;28;20049;-48
2024/02/17 00:56:30;;;;;;;1.75;1.02;;;;;;;9.94;71.97;101099.97;5043694;28;20135;-46
2024/02/17 00:58:57;;;;;;;3.90;0.98;;;;;;;9.92;71.95;101101.63;5041132;28;20172;-47
2024/02/17 01:01:24;;;;;;;2.88;0.85;;;;;;;9.92;72.27;101106.81;5034653;28;20499;-46
2024/02/17 01:04:04;;;;;;;3.55;1.20;;;;;;;9.90;72.49;101100.75;5042073;28;20052;-49
2024/02/17 01:06:31;;;;;;;3.75;1.17;;;;;;;9.90;72.50;101106.78;5043424;28;20477;-48
2024/02/17 01:08:59;;;;;;;2.28;0.80;;;;;;;9.92;72.10;101105.94;5042243;28;20064;-45
2024/02/17 01:11:27;;;;;;;5.28;1.00;;;;;;;9.90;72.65;101103.34;5033465;28;20049;-50
2024/02/17 01:13:55;;;;;;;2.47;0.63;;;;;;;9.91;72.52;101102.47;5038002;28;20057;-50
2024/02/17 01:16:22;;;;;;;8.15;1.33;;;;;;;9.91;72.40;101112.84;5035676;28;20100;-48
2024/02/17 01:18:50;;;;;;;3.55;1.13;;;;;;;9.91;73.04;101107.66;5054700;28;20056;-47
2024/02/17 01:21:18;;;;;;;4.53;2.40;;;;;;;9.92;72.19;101113.72;5046754;28;20056;-49
2024/02/17 01:23:46;;;;;;;4.93;1.50;;;;;;;9.91;72.78;101115.44;5038636;28;20450;-46
2024/02/17 01:26:14;;;;;;;4.38;0.93;;;;;;;9.89;72.81;101109.34;5045307;28;20044;-47
2024/02/17 01:28:42;;;;;;;10.30;1.60;;;;;;;9.90;72.99;101114.53;5029094;28;20053;-46
2024/02/17 01:31:09;;;;;;;9.88;2.03;;;;;;;9.89;73.45;101111.91;5020057;28;20490;-49
2024/02/17 01:33:37;;;;;;;4.00;1.30;;;;;;;9.89;73.46;101114.50;5038740;28;20048;-47
2024/02/17 01:36:05;;;;;;;3.45;1.60;;;;;;;9.87;72.87;101116.22;5037624;28;20140;-48
2024/02/17 01:38:32;;;;;;;5.13;1.50;;;;;;;9.80;73.48;101110.06;5041334;28;20044;-43
2024/02/17 01:41:00;;;;;;;4.82;1.45;;;;;;;9.74;73.51;101110.84;5041148;28;20076;-49
2024/02/17 01:43:27;;;;;;;9.43;2.05;;;;;;;9.66;72.87;101109.78;5044726;28;20083;-49
2024/02/17 01:45:55;;;;;;;7.53;1.65;;;;;;;9.60;72.96;101112.28;5040112;28;20139;-51
2024/02/17 01:48:22;;;;;;;7.35;1.40;;;;;;;9.54;73.69;101109.56;5037162;28;20052;-44
2024/02/17 01:50:50;;;;;;;10.20;1.98;;;;;;;9.45;73.82;101105.97;5041765;28;20049;-49
2024/02/17 01:53:17;;;;;;;4.32;1.33;;;;;;;9.38;73.76;101109.28;5044833;28;20045;-46
2024/02/17 01:55:45;;;;;;;6.32;1.60;;;;;;;9.32;73.54;101114.34;5036048;28;20053;-45
2024/02/17 01:58:12;;;;;;;8.40;1.92;;;;;;;9.21;73.58;101117.59;5035812;28;20059;-48
2024/02/17 02:00:40;;;;;;;10.63;1.55;;;;;;;9.15;73.95;101112.28;5039397;28;20049;-45
2024/02/17 02:03:07;;;;;;;5.05;1.48;;;;;;;9.11;73.61;101113.06;5039432;28;20080;-45
2024/02/17 02:05:34;;;;;;;5.70;1.85;;;;;;;9.06;74.36;101112.09;5046065;28;20052;-46
2024/02/17 02:08:01;;;;;;;6.53;1.40;;;;;;;8.99;73.91;101104.22;5043658;28;20037;-46
2024/02/17 02:10:28;;;;;;;6.53;1.60;;;;;;;8.96;74.32;101106.75;5044584;28;20536;-47
2024/02/17 02:12:55;;;;;;;6.25;1.90;;;;;;;8.91;73.96;101108.34;5036006;28;20048;-45
2024/02/17 02:15:22;;;;;;;6.70;1.40;;;;;;;8.85;74.43;101113.41;5045732;28;20072;-47
2024/02/17 02:18:02;;;;;;;5.90;2.10;;;;;;;8.79;73.91;101121.00;5038292;28;20077;-47
2024/02/17 02:20:29;;;;;;;8.48;1.23;;;;;;;8.76;74.25;101128.69;5056399;28;20059;-46
2024/02/17 02:22:56;;;;;;;8.55;1.63;;;;;;;8.71;74.41;101132.03;5043333;28;20066;-44
2024/02/17 02:25:25;;;;;;;5.70;1.73;;;;;;;8.68;74.58;101120.78;5044450;28;20079;-46
2024/02/17 02:27:54;;;;;;;7.20;1.67;;;;;;;8.65;74.74;101121.56;5043772;28;20060;-46
2024/02/17 02:30:22;;;;;;;5.07;1.63;;;;;;;8.61;74.57;101114.59;5042997;28;20111;-45
2024/02/17 02:32:49;;;;;;;5.43;1.23;;;;;;;8.58;74.78;101122.28;5041744;28;20406;-47
2024/02/17 02:35:17;;;;;;;6.15;1.33;;;;;;;8.55;74.62;101132.53;5040407;28;20449;-45
2024/02/17 02:37:46;;;;;;;7.68;1.73;;;;;;;8.52;75.16;101132.44;5044766;28;20041;-46
2024/02/17 02:40:13;;;;;;;7.15;1.33;;;;;;;8.48;74.86;101129.78;5044397;28;20045;-47
2024/02/17 02:42:39;;;;;;;8.73;2.10;;;;;;;8.46;74.72;101126.31;5043633;28;21077;-46
2024/02/17 02:45:06;;;;;;;8.27;1.90;;;;;;;8.45;75.33;101129.69;5043652;28;20498;-44
2024/02/17 02:47:33;;;;;;;10.23;1.60;;;;;;;8.44;75.12;101125.38;5044392;28;20075;-49
2024/02/17 02:50:00;;;;;;;6.28;1.70;;;;;;;8.44;75.00;101127.97;5037159;28;20506;-46
2024/02/17 02:52:27;;;;;;;6.35;1.83;;;;;;;8.44;75.42;101122.78;5041461;28;20678;-48
2024/02/17 02:54:54;;;;;;;4.55;1.73;;;;;;;8.46;74.97;101126.31;5040574;28;20068;-47
2024/02/17 02:57:21;;;;;;;5.32;2.05;;;;;;;8.49;75.08;101138.41;5045111;28;20057;-45
2024/02/17 02:59:50;;;;;;;5.25;1.83;;;;;;;8.54;75.54;101138.56;5044092;28;20048;-44
2024/02/17 03:02:16;;;;;;;9.25;1.33;;;;;;;8.59;75.14;101147.28;5055595;28;20048;-46
2024/02/17 03:04:43;;;;;;;6.07;1.30;;;;;;;8.60;75.85;101130.94;5042600;28;20053;-46
2024/02/17 03:07:10;;;;;;;15.55;2.08;;;;;;;8.63;75.75;101132.69;5048925;28;20045;-46
2024/02/17 03:09:37;;;;;;;6.85;1.70;;;;;;;8.65;75.63;101134.47;5040508;28;20049;-48
2024/02/17 03:12:04;;;;;;;9.05;2.35;;;;;;;8.67;75.61;101135.41;5039385;28;20394;-50
2024/02/17 03:14:33;;;;;;;11.25;1.88;;;;;;;8.69;75.18;101136.31;5027820;28;20053;-50
2024/02/17 03:16:59;;;;;;;10.68;1.73;;;;;;;8.72;75.41;101143.25;5025549;28;20056;-48
2024/02/17 03:19:26;;;;;;;5.75;1.52;;;;;;;8.76;75.25;101139.03;5034550;28;20639;-48
2024/02/17 03:21:56;;;;;;;5.38;1.70;;;;;;;8.78;75.62;101139.94;5037843;28;20049;-48
2024/02/17 03:24:24;;;;;;;8.02;1.83;;;;;;;8.79;75.68;101139.09;5046140;28;20048;-49
2024/02/17 03:26:52;;;;;;;10.18;2.08;;;;;;;8.81;75.60;101147.78;5048706;28;20071;-49
2024/02/17 03:29:20;;;;;;;7.70;1.55;;;;;;;8.85;75.53;101154.75;5029905;28;20072;-47
2024/02/17 03:31:47;;;;;;;5.72;1.67;;;;;;;8.85;76.14;101150.44;5045884;28;20092;-45
2024/02/17 03:34:15;;;;;;;8.75;1.75;;;;;;;8.90;75.77;101155.72;5039824;28;20057;-46
2024/02/17 03:36:42;;;;;;;6.18;1.80;;;;;;;8.92;75.83;101156.59;5032752;28;20160;-48
2024/02/17 03:39:09;;;;;;;8.27;1.85;;;;;;;8.94;75.71;101149.78;5039966;28;20049;-44
2024/02/17 03:41:36;;;;;;;7.80;1.73;;;;;;;8.97;76.21;101144.66;5044557;28;20075;-45
2024/02/17 03:44:03;;;;;;;11.40;1.67;;;;;;;8.97;76.00;101146.38;5046476;28;20076;-47
2024/02/17 03:46:30;;;;;;;6.97;1.50;;;;;;;8.97;75.60;101149.84;5046720;28;20052;-47
2024/02/17 03:48:57;;;;;;;9.27;2.40;;;;;;;8.99;75.83;101157.63;5045337;28;20052;-46
2024/02/17 03:51:24;;;;;;;9.50;2.13;;;;;;;9.00;75.76;101160.25;5039810;28;20405;-49
2024/02/17 03:53:51;;;;;;;9.02;2.25;;;;;;;9.02;76.19;101162.84;5049453;28;20055;-44
2024/02/17 03:56:18;;;;;;;14.38;2.55;;;;;;;9.05;76.02;101157.75;5047742;28;20057;-50
2024/02/17 03:58:47;;;;;;;9.02;1.70;;;;;;;9.06;76.02;101154.34;5036114;28;20156;-45
2024/02/17 04:01:17;;;;;;;4.10;1.50;;;;;;;9.08;76.13;101147.47;5048882;28;20072;-48
2024/02/17 04:03:44;;;;;;;8.63;2.08;;;;;;;9.08;75.87;101147.47;5047597;28;20498;-48
2024/02/17 04:06:12;;;;;;;7.00;2.15;;;;;;;9.08;76.37;101151.75;5046297;28;20060;-46
2024/02/17 04:08:39;;;;;;;7.15;1.63;;;;;;;9.08;76.17;101157.81;5048005;28;20048;-49
2024/02/17 04:11:07;;;;;;;4.43;1.55;;;;;;;9.08;75.87;101151.75;5046978;28;20086;-48
2024/02/17 04:13:33;;;;;;;10.75;1.83;;;;;;;9.09;75.80;101156.13;5041680;28;20045;-47
2024/02/17 04:16:00;;;;;;;5.50;1.90;;;;;;;9.10;75.92;101160.44;5048327;28;20155;-46
2024/02/17 04:18:27;;;;;;;7.05;1.95;;;;;;;9.10;75.74;101155.28;5044745;28;20049;-44
2024/02/17 04:20:54;;;;;;;4.80;1.63;;;;;;;9.11;76.24;101163.06;5044925;28;20045;-46
2024/02/17 04:23:21;;;;;;;7.18;1.60;;;;;;;9.12;75.93;101161.34;5052012;28;20051;-45
2024/02/17 04:25:47;;;;;;;5.45;1.77;;;;;;;9.13;76.48;101171.69;5052646;28;20055;-47
2024/02/17 04:28:14;;;;;;;7.82;1.88;;;;;;;9.13;76.47;101176.00;5047495;28;20132;-50
2024/02/17 04:30:41;;;;;;;7.80;1.60;;;;;;;9.13;76.72;101176.00;5047249;28;20102;-46
2024/02/17 04:33:07;;;;;;;5.47;1.95;;;;;;;9.13;76.95;101176.00;5045618;28;20124;-46
2024/02/17 04:35:34;;;;;;;7.35;1.85;;;;;;;9.15;76.60;101178.63;5047655;28;20063;-45
2024/02/17 04:38:03;;;;;;;5.55;2.17;;;;;;;9.15;76.88;101178.63;5048632;28;20073;-45
2024/02/17 04:40:32;;;;;;;8.75;1.30;;;;;;;9.15;76.64;101184.66;5046004;28;20909;-45
2024/02/17 04:42:58;;;;;;;6.65;1.58;;;;;;;9.16;77.28;101181.25;5038975;28;20053;-47
2024/02/17 04:45:26;;;;;;;8.10;1.70;;;;;;;9.17;77.06;101177.81;5044696;28;20051;-45
2024/02/17 04:47:53;;;;;;;3.60;1.33;;;;;;;9.18;76.85;101179.56;5041584;28;20568;-46
2024/02/17 04:50:20;;;;;;;7.57;1.45;;;;;;;9.20;76.57;101188.22;5020472;28;20088;-49
2024/02/17 04:52:47;;;;;;;3.95;1.67;;;;;;;9.20;77.00;101188.22;5038503;28;20076;-49
2024/02/17 04:55:14;;;;;;;6.57;1.92;;;;;;;9.20;77.25;101183.06;5048945;28;20047;-46
2024/02/17 04:57:40;;;;;;;3.72;1.10;;;;;;;9.22;77.05;101181.38;5046645;28;20067;-47
2024/02/17 05:00:08;;;;;;;6.70;1.33;;;;;;;9.24;77.21;101184.88;5045311;28;20048;-49
2024/02/17 05:02:37;;;;;;;8.20;1.83;;;;;;;9.24;77.34;101184.88;5041205;28;20079;-45
2024/02/17 05:05:06;;;;;;;3.30;1.33;;;;;;;9.25;77.31;101191.78;5048892;28;20044;-45
2024/02/17 05:07:33;;;;;;;8.77;1.55;;;;;;;9.26;76.97;101185.75;5048553;28;20041;-47
2024/02/17 05:09:59;;;;;;;6.47;1.73;;;;;;;9.28;77.21;101196.13;5046337;28;20137;-47
2024/02/17 05:12:27;;;;;;;6.25;2.13;;;;;;;9.28;77.56;101187.53;5047477;28;20059;-44
2024/02/17 05:14:54;;;;;;;3.40;1.48;;;;;;;9.29;77.22;101186.69;5048958;28;20049;-44
2024/02/17 05:17:20;;;;;;;4.18;1.38;;;;;;;9.29;77.20;101189.25;5042589;28;20079;-46
2024/02/17 05:19:48;;;;;;;7.40;1.50;;;;;;;9.30;77.75;101198.75;5042486;28;20045;-47
2024/02/17 05:22:16;;;;;;;6.10;0.93;;;;;;;9.31;77.52;101195.31;5040770;28;20103;-46
2024/02/17 05:24:44;;;;;;;6.10;1.33;;;;;;;9.31;77.20;101200.50;5037091;28;20053;-45
2024/02/17 05:27:12;;;;;;;5.75;1.42;;;;;;;9.34;77.93;101185.94;5046630;28;20110;-48
2024/02/17 05:29:40;;;;;;;5.82;1.77;;;;;;;9.36;77.70;101196.31;5045497;28;20076;-51
2024/02/17 05:32:09;;;;;;;9.75;1.52;;;;;;;9.39;77.77;101188.59;5042705;28;20049;-47
2024/02/17 05:34:36;;;;;;;5.25;1.10;;;;;;;9.39;78.14;101189.47;5038037;28;24015;-46
2024/02/17 05:37:04;;;;;;;5.35;1.45;;;;;;;9.39;78.04;101193.75;5035191;28;20045;-47
2024/02/17 05:39:32;;;;;;;5.28;1.58;;;;;;;9.40;78.38;101195.53;5042173;28;20650;-48
2024/02/17 05:41:59;;;;;;;4.88;1.23;;;;;;;9.42;78.63;101203.31;5046055;28;20091;-50
2024/02/17 05:44:28;;;;;;;7.30;1.73;;;;;;;9.44;78.56;101197.34;5045592;28;20061;-46
2024/02/17 05:46:55;;;;;;;5.10;1.23;;;;;;;9.45;78.66;101199.06;5042090;28;20065;-48
2024/02/17 05:49:22;;;;;;;2.58;0.90;;;;;;;9.45;78.62;101196.50;5046107;28;20045;-48
2024/02/17 05:51:51;;;;;;;2.67;1.05;;;;;;;9.45;79.02;101190.44;5044212;28;20056;-49
2024/02/17 05:54:19;;;;;;;5.57;1.20;;;;;;;9.42;80.43;101193.84;5046689;28;20075;-45
2024/02/17 05:56:46;;;;;;;3.20;1.00;;;;;;;9.46;79.09;101200.81;5048196;28;20144;-46
2024/02/17 05:59:13;;;;;;;7.60;1.77;;;;;;;9.48;79.64;101201.72;5044465;28;20049;-51
2024/02/17 06:01:42;;;;;;;6.32;1.48;;;;;;;9.50;79.83;101202.63;5045358;28;20056;-45
2024/02/17 06:04:13;;;;;;;6.63;1.50;;;;;;;9.50;80.00;101197.44;5043986;28;20448;-47
2024/02/17 06:06:41;;;;;;;4.30;1.40;;;;;;;9.52;79.68;101198.38;5034565;28;20099;-47
2024/02/17 06:09:08;;;;;;;7.22;1.90;;;;;;;9.54;79.69;101203.56;5035352;28;20107;-47
2024/02/17 06:11:35;;;;;;;7.38;1.85;;;;;;;9.58;79.03;101209.66;5043762;28;20056;-48
2024/02/17 06:14:02;;;;;;;10.25;1.40;;;;;;;9.60;79.19;101208.00;5041265;28;20064;-45
2024/02/17 06:16:29;;;;;;;8.75;1.65;;;;;;;9.60;79.57;101208.00;5048851;28;20071;-48
2024/02/17 06:21:44;;;;;;;9.38;2.00;;;;;;;9.64;79.66;101209.78;5039697;28;20510;-45
2024/02/17 06:24:10;;;;;;;4.00;1.42;;;;;;;9.64;80.31;101209.78;5040365;28;20076;-47
2024/02/17 06:26:37;;;;;;;5.90;1.25;;;;;;;9.64;79.96;101215.84;5041699;28;20045;-46
2024/02/17 06:29:05;;;;;;;5.03;1.48;;;;;;;9.63;80.10;101206.31;5051033;28;20055;-47
2024/02/17 06:31:33;;;;;;;7.43;1.30;;;;;;;9.63;80.00;101208.06;5050133;28;20060;-48
2024/02/17 06:34:06;;;;;;;5.32;1.65;;;;;;;9.61;79.81;101204.56;5048613;28;20044;-45
2024/02/17 06:36:34;;;;;;;6.75;1.52;;;;;;;9.60;80.01;101208.00;5046890;28;20072;-46
2024/02/17 06:39:01;;;;;;;10.88;1.98;;;;;;;9.58;80.58;101214.84;5044371;28;20059;-46
2024/02/17 06:41:27;;;;;;;7.45;1.65;;;;;;;9.58;80.17;101223.47;5044651;28;20057;-46
2024/02/17 06:43:54;;;;;;;5.80;2.38;;;;;;;9.59;80.04;101224.38;5047250;28;20048;-47
2024/02/17 06:46:21;;;;;;;11.13;1.73;;;;;;;9.61;80.16;101227.84;5044399;28;20053;-49
2024/02/17 06:48:50;;;;;;;6.40;1.40;;;;;;;9.60;80.34;101228.69;5043372;28;20418;-45
2024/02/17 06:51:22;;;;;;;4.20;1.80;;;;;;;9.57;80.42;101216.56;5049095;28;20048;-48
2024/02/17 06:53:50;;;;;;;5.35;1.48;;;;;;;9.59;80.20;101229.53;5046607;28;20056;-48
2024/02/17 06:56:16;;;;;;;6.25;1.33;;;;;;;9.58;80.77;101227.78;5049685;28;20461;-45
2024/02/17 06:58:43;;;;;;;6.10;1.70;;;;;;;9.55;81.06;101230.31;5043744;28;20053;-45
2024/02/17 07:01:10;;;;;;;6.07;1.98;;;;;;;9.57;80.47;101229.50;5042890;28;20057;-45
2024/02/17 07:03:37;;;;;;;14.55;1.77;;;;;;;9.58;81.14;101230.34;5043380;28;20154;-49
2024/02/17 07:06:04;;;;;;;7.70;1.40;;;;;;;9.59;80.68;101232.13;5048051;28;20461;-45
2024/02/17 07:08:32;;;;;;;5.65;1.65;;;;;;;9.61;80.88;101235.59;5046257;28;20148;-50
2024/02/17 07:10:59;;;;;;;3.55;1.23;;;;;;;9.62;81.23;101240.81;5036440;28;20057;-47
2024/02/17 07:13:26;;;;;;;4.05;2.03;;;;;;;9.63;80.70;101244.28;5041732;28;20051;-48
2024/02/17 07:15:53;;;;;;;9.10;2.42;;;;;;;9.64;80.77;101246.00;5041134;28;20056;-46
2024/02/17 07:18:20;;;;;;;7.75;1.50;;;;;;;9.65;81.22;101242.56;5037412;28;20127;-47
2024/02/17 07:20:48;;;;;;;3.80;1.05;;;;;;;9.65;80.82;101258.09;5043396;28;20061;-47
2024/02/17 07:23:23;;;;;;;6.90;1.80;;;;;;;9.67;80.85;101261.59;5044200;28;20525;-45
2024/02/17 07:25:51;;;;;;;;;;;;;;;9.60;81.12;101264.91;5042090;28;20049;-46
2024/02/17 07:28:18;;;;;;;7.65;1.83;;;;;;;9.68;80.97;101284.03;5038014;28;19960;-48
2024/02/17 07:30:45;;;;;;;5.68;1.42;;;;;;;9.71;80.93;101272.88;5036982;28;20076;-47
2024/02/17 07:33:14;;;;;;;7.57;1.55;;;;;;;9.72;80.39;101272.03;5038937;28;20053;-48
2024/02/17 07:35:44;;;;;;;4.18;2.05;;;;;;;9.73;81.04;101266.88;5037058;28;20485;-45
2024/02/17 07:38:11;;;;;;;5.25;1.60;;;;;;;9.75;80.27;101278.16;5036366;28;20048;-44
2024/02/17 07:40:38;;;;;;;5.60;1.70;;;;;;;9.76;80.52;101279.88;5035882;28;20048;-44
2024/02/17 07:43:05;;;;;;;4.63;1.95;;;;;;;9.80;80.73;101285.13;5036715;28;20044;-46
2024/02/17 07:45:32;;;;;;;7.93;2.47;;;;;;;9.79;80.48;101286.84;5037065;28;20053;-49
2024/02/17 07:47:59;;;;;;;3.30;1.10;;;;;;;9.82;81.07;101291.19;5033298;28;20518;-46
2024/02/17 07:50:26;;;;;;;4.63;1.48;;;;;;;9.83;81.05;101290.38;5036997;28;20041;-44
2024/02/17 07:52:53;;;;;;;8.77;2.50;;;;;;;9.85;80.62;101296.44;5039081;28;20080;-48
2024/02/17 07:55:21;;;;;;;6.00;1.63;;;;;;;9.87;81.52;101297.34;5037395;28;20777;-48
2024/02/17 07:57:48;;;;;;;8.00;1.83;;;;;;;9.86;81.34;101288.72;5035092;28;20070;-46
2024/02/17 08:00:15;;;;;;;4.28;2.03;;;;;;;9.88;81.24;101291.34;5038261;28;20048;-46
2024/02/17 08:02:45;;;;;;;5.55;2.08;;;;;;;9.88;81.17;101292.22;5036049;28;20578;-46
2024/02/17 08:05:12;;;;;;;;;;;;;;;9.80;81.43;101292.91;5039903;28;20524;-47
2024/02/17 08:07:40;;;;;;;3.45;2.03;;;;;;;9.90;80.84;101289.66;5035143;28;19927;-43
2024/02/17 08:10:08;;;;;;;6.40;2.22;;;;;;;9.90;81.53;101290.50;5042930;28;20124;-44
2024/02/17 08:12:35;;;;;;;6.00;1.33;;;;;;;9.93;81.65;101289.69;5034198;28;20783;-45
2024/02/17 08:15:03;;;;;;;4.97;1.88;;;;;;;9.94;81.81;101296.66;5040135;28;20106;-47
2024/02/17 08:17:29;;;;;;;3.45;1.60;;;;;;;9.95;81.97;101293.22;5041174;28;20045;-46
2024/02/17 08:19:56;;;;;;;5.70;2.05;;;;;;;10.01;82.14;101300.22;5046363;28;20076;-48
2024/02/17 08:22:28;;;;;;;5.15;1.75;;;;;;;10.05;81.44;101301.13;5031240;28;20050;-46
2024/02/17 08:24:56;;;;;;;5.68;2.50;;;;;;;10.08;82.16;101293.44;5035904;28;20413;-45
2024/02/17 08:27:23;;;;;;;3.85;1.83;;;;;;;10.08;81.96;101298.63;5031220;28;20084;-44
2024/02/17 08:29:50;;;;;;;7.43;2.20;;;;;;;10.10;81.73;101299.53;5031483;28;20048;-50
2024/02/17 08:32:16;;;;;;;7.97;2.53;;;;;;;10.12;82.11;101305.59;5025609;28;20053;-45
2024/02/17 08:34:44;;;;;;;3.28;2.00;;;;;;;10.13;82.25;101307.34;5037155;28;20056;-46
2024/02/17 08:37:12;;;;;;;4.88;1.95;;;;;;;10.19;81.58;101323.00;5035340;28;20055;-48
2024/02/17 08:39:39;;;;;;;7.45;2.70;;;;;;;10.23;81.88;101318.78;5032896;28;20100;-51
2024/02/17 08:42:06;;;;;;;4.90;2.20;;;;;;;10.27;82.48;101321.44;5036093;28;20058;-46
2024/02/17 08:44:33;;;;;;;8.40;2.30;;;;;;;10.30;81.57;101315.44;5036356;28;20053;-47
2024/02/17 08:47:01;;;;;;;5.75;2.08;;;;;;;10.34;81.95;101318.97;5035432;28;20052;-48
2024/02/17 08:49:27;;;;;;;4.45;1.98;;;;;;;10.38;81.61;101321.66;5033869;28;20049;-48
2024/02/17 08:51:54;;;;;;;7.50;2.88;;;;;;;10.40;81.30;101319.06;5037006;28;20102;-48
2024/02/17 08:54:25;;;;;;;5.43;2.58;;;;;;;10.42;81.94;101325.16;5043914;28;20052;-47
2024/02/17 08:56:53;;;;;;;4.72;2.50;;;;;;;10.45;82.33;101320.06;5037053;28;20053;-46
2024/02/17 08:59:22;;;;;;;5.38;2.22;;;;;;;10.51;81.47;101324.50;5031821;28;20064;-45
2024/02/17 09:01:48;;;;;;;7.40;2.90;;;;;;;10.53;81.69;101318.50;5031949;28;20147;-48
2024/02/17 09:04:15;;;;;;;5.90;2.05;;;;;;;10.57;81.93;101326.31;5036164;28;20060;-45
2024/02/17 09:06:42;;;;;;;5.47;2.30;;;;;;;10.60;82.01;101328.97;5029708;28;20136;-50
2024/02/17 09:09:09;;;;;;;5.35;2.15;;;;;;;10.62;81.84;101322.97;5038190;28;20168;-49
2024/02/17 09:11:36;;;;;;;7.82;2.85;;;;;;;10.66;81.68;101323.88;5042983;28;20041;-48
2024/02/17 09:14:03;;;;;;;5.78;2.55;;;;;;;10.72;81.74;101328.28;5039267;28;20052;-50
2024/02/17 09:16:30;;;;;;;6.88;2.58;;;;;;;10.76;82.42;101330.97;5038923;28;20053;-51
2024/02/17 09:18:59;;;;;;;7.13;2.20;;;;;;;10.83;81.82;101319.00;5033727;28;20073;-45
2024/02/17 09:21:25;;;;;;;6.60;3.20;;;;;;;10.91;81.36;101329.50;5030371;28;20049;-44
2024/02/17 09:23:52;;;;;;;5.40;2.17;;;;;;;10.96;81.82;101327.84;5040245;28;20602;-47
2024/02/17 09:26:21;;;;;;;7.60;2.83;;;;;;;11.02;81.40;101335.69;5052706;28;20702;-47
2024/02/17 09:28:48;;;;;;;6.28;2.50;;;;;;;11.07;81.59;101335.78;5035606;28;20732;-46
2024/02/17 09:31:15;;;;;;;8.02;2.70;;;;;;;11.10;81.85;101343.63;5029932;28;20052;-46
2024/02/17 09:33:42;;;;;;;7.03;2.50;;;;;;;11.13;82.14;101346.25;5036405;28;20044;-44
2024/02/17 09:36:08;;;;;;;4.43;2.25;;;;;;;11.16;81.55;101342.84;5032415;28;20426;-47
2024/02/17 09:38:35;;;;;;;4.68;2.28;;;;;;;11.18;81.11;101339.41;5034592;28;20072;-44
2024/02/17 09:41:03;;;;;;;5.15;2.13;;;;;;;11.16;80.68;101350.63;5031709;28;20049;-52
2024/02/17 09:43:30;;;;;;;6.18;2.42;;;;;;;11.15;81.63;101348.88;5036739;28;20622;-45
2024/02/17 09:45:57;;;;;;;5.05;2.22;;;;;;;11.18;81.02;101359.31;5037671;28;20053;-47
2024/02/17 09:48:24;;;;;;;5.47;2.55;;;;;;;11.22;81.28;101362.81;5037781;28;20173;-48
2024/02/17 09:50:53;;;;;;;6.18;2.42;;;;;;;11.27;81.95;101362.03;5033329;28;22832;-47
2024/02/17 09:53:22;;;;;;;4.40;2.08;;;;;;;11.30;81.64;101356.91;5039423;28;20045;-48
2024/02/17 09:55:50;;;;;;;6.95;2.55;;;;;;;11.35;80.76;101366.47;5040116;28;20116;-45
2024/02/17 09:58:17;;;;;;;5.90;2.30;;;;;;;11.38;80.60;101361.34;5034041;28;20045;-51
2024/02/17 10:00:47;;;;;;;6.90;2.20;;;;;;;11.44;81.77;101359.69;5042784;28;20134;-50
2024/02/17 10:03:15;;;;;;;5.53;2.20;;;;;;;11.50;81.68;101358.91;5035522;28;20663;-50
2024/02/17 10:05:41;;;;;;;5.43;2.03;;;;;;;11.54;81.07;101363.31;5036022;28;20468;-52
2024/02/17 10:08:08;;;;;;;5.55;2.38;;;;;;;11.55;80.58;101365.03;5038328;28;20057;-50
2024/02/17 10:10:35;;;;;;;4.43;1.75;;;;;;;11.57;81.07;101358.16;5035384;28;20454;-47
2024/02/17 10:13:02;;;;;;;3.20;1.63;;;;;;;11.60;80.47;101359.91;5034864;28;20055;-50
2024/02/17 10:15:31;;;;;;;3.67;1.85;;;;;;;11.63;80.36;101364.28;5034288;28;20048;-49
2024/02/17 10:17:58;;;;;;;4.53;1.98;;;;;;;11.67;81.71;101373.84;5040823;28;20056;-46
2024/02/17 10:20:26;;;;;;;3.95;2.00;;;;;;;11.72;80.86;101372.19;5030353;28;20144;-49
2024/02/17 10:22:54;;;;;;;5.28;2.25;;;;;;;11.76;81.17;101379.16;5048105;28;20185;-48
2024/02/17 10:25:21;;;;;;;3.53;2.00;;;;;;;11.79;81.78;101374.00;5032775;28;20473;-48
2024/02/17 10:27:51;;;;;;;5.20;2.00;;;;;;;11.82;81.42;101376.66;5041968;28;20052;-48
2024/02/17 10:30:20;;;;;;;4.53;2.00;;;;;;;11.86;81.08;101374.09;5040881;28;20091;-50
2024/02/17 10:32:47;;;;;;;6.63;1.73;;;;;;;11.90;81.52;101379.38;5042981;28;20417;-50
2024/02/17 10:35:15;;;;;;;3.40;1.75;;;;;;;11.94;80.54;101380.25;5039000;28;20119;-46
2024/02/17 10:37:42;;;;;;;3.75;1.95;;;;;;;11.94;80.08;101378.56;5038312;28;20166;-47
2024/02/17 10:40:11;;;;;;;2.85;1.65;;;;;;;11.99;80.22;101388.97;5042501;28;20608;-49
2024/02/17 10:42:37;;;;;;;3.85;1.83;;;;;;;11.98;80.53;101379.44;5045693;28;20107;-52
2024/02/17 10:45:06;;;;;;;2.95;1.80;;;;;;;12.03;80.93;101388.16;5037545;28;20426;-52
2024/02/17 10:47:36;;;;;;;4.22;1.67;;;;;;;12.08;81.29;101386.56;5041406;28;20422;-49
2024/02/17 10:50:14;;;;;;;3.42;1.65;;;;;;;12.10;79.92;101393.47;5037931;28;20059;-47
2024/02/17 10:52:49;;;;;;;3.78;1.67;;;;;;;12.13;80.30;101393.53;5040916;28;20132;-48
2024/02/17 10:55:19;;;;;;;3.70;1.65;;;;;;;12.13;81.22;101398.72;5043056;28;20068;-47
2024/02/17 10:58:10;;;;;;;2.60;1.55;;;;;;;12.12;80.99;101402.19;5043025;28;20059;-49
2024/02/17 11:00:44;;;;;;;2.88;1.20;;;;;;;12.21;81.22;101407.47;5038601;28;20493;-46
2024/02/17 11:03:14;;;;;;;10.57;4.70;;;;;;;12.27;80.94;101401.47;5042136;28;20060;-46
2024/02/17 11:05:44;;;;;;;5.78;2.10;;;;;;;12.29;81.03;101403.25;5039768;28;20060;-52
2024/02/17 11:08:11;;;;;;;3.17;1.50;;;;;;;12.31;81.15;101401.53;5047294;28;20430;-52
2024/02/17 11:10:41;;;;;;;5.15;1.88;;;;;;;12.36;80.73;101405.91;5037113;28;20870;-48
2024/02/17 11:13:21;;;;;;;1.52;1.00;;;;;;;12.36;80.07;101411.13;5044678;28;20049;-48
2024/02/17 11:16:05;;;;;;;3.40;1.40;;;;;;;12.35;80.48;101410.22;5046692;28;20044;-51
2024/02/17 11:18:36;;;;;;;3.03;1.20;;;;;;;12.37;79.92;101403.34;5046497;28;20056;-44
2024/02/17 11:21:03;;;;;;;2.88;1.48;;;;;;;12.34;80.85;101398.97;5043992;28;20478;-51
2024/02/17 11:23:36;;;;;;;2.20;1.20;;;;;;;12.33;80.76;101402.41;5038630;28;20571;-50
2024/02/17 11:26:08;;;;;;;2.65;1.15;;;;;;;12.33;80.78;101399.81;5045054;28;20053;-51
2024/02/17 11:28:34;;;;;;;2.75;1.70;;;;;;;12.32;79.88;101400.69;5044381;28;20049;-51
2024/02/17 11:31:06;;;;;;;3.88;1.42;;;;;;;12.37;80.51;101399.88;5047739;28;20052;-50
2024/02/17 11:33:33;;;;;;;4.07;2.03;;;;;;;12.41;81.27;101399.03;5047205;28;20393;-48
2024/02/17 11:36:08;;;;;;;2.45;1.35;;;;;;;12.44;81.41;101401.69;5040751;28;20066;-50